createdAt,value
2018-10-18T00:00:26.308Z,11.80
2018-10-18T00:02:54.880Z,11.80
2018-10-18T00:05:23.442Z,11.80
2018-10-18T00:07:52.056Z,11.80
2018-10-18T00:10:20.803Z,11.70
2018-10-18T00:12:49.802Z,11.70
2018-10-18T00:15:18.346Z,11.80
2018-10-18T00:17:48.158Z,11.70
2018-10-18T00:20:17.494Z,11.70
2018-10-18T00:22:46.766Z,11.70
2018-10-18T00:25:16.275Z,11.60
2018-10-18T00:27:45.090Z,11.60
2018-10-18T00:30:14.950Z,11.60
2018-10-18T00:32:44.384Z,11.60
2018-10-18T00:35:13.694Z,11.50
2018-10-18T00:37:42.251Z,11.50
2018-10-18T00:40:12.324Z,11.50
2018-10-18T00:42:41.778Z,11.50
2018-10-18T00:45:11.081Z,11.50
2018-10-18T00:47:39.673Z,11.40
2018-10-18T00:50:09.888Z,11.40
2018-10-18T00:52:38.497Z,11.40
2018-10-18T00:55:08.186Z,11.40
2018-10-18T00:57:36.764Z,11.30
2018-10-18T01:00:06.479Z,11.40
2018-10-18T01:02:35.160Z,11.30
2018-10-18T01:05:03.820Z,11.30
2018-10-18T01:07:32.438Z,11.40
2018-10-18T01:10:01.030Z,11.40
2018-10-18T01:12:29.997Z,11.40
2018-10-18T01:14:58.428Z,11.40
2018-10-18T01:17:27.020Z,11.40
2018-10-18T01:19:55.649Z,11.30
2018-10-18T01:22:24.194Z,11.20
2018-10-18T01:24:52.734Z,11.30
2018-10-18T01:27:21.305Z,11.20
2018-10-18T01:29:49.980Z,11.30
2018-10-18T01:32:21.354Z,11.30
2018-10-18T01:34:50.074Z,11.20
2018-10-18T01:37:18.686Z,11.20
2018-10-18T01:39:47.286Z,11.10
2018-10-18T01:42:15.906Z,11.10
2018-10-18T01:44:44.460Z,11.10
2018-10-18T01:47:13.032Z,11.10
2018-10-18T01:49:41.603Z,11.10
2018-10-18T01:52:10.168Z,11.20
2018-10-18T01:54:38.771Z,11.20
2018-10-18T01:57:07.325Z,11.10
2018-10-18T01:59:35.932Z,11.20
2018-10-18T02:02:04.650Z,11.20
2018-10-18T02:04:33.274Z,11.20
2018-10-18T02:07:02.072Z,11.10
2018-10-18T02:09:31.218Z,11.10
2018-10-18T02:11:59.818Z,11.10
2018-10-18T02:14:28.675Z,11.10
2018-10-18T02:16:57.332Z,11.10
2018-10-18T02:19:25.916Z,11.00
2018-10-18T02:21:54.461Z,11.00
2018-10-18T02:24:23.840Z,11.00
2018-10-18T02:26:52.390Z,11.00
2018-10-18T02:29:20.968Z,11.00
2018-10-18T02:31:49.497Z,11.00
2018-10-18T02:34:18.340Z,11.00
2018-10-18T02:36:47.189Z,11.00
2018-10-18T02:39:15.778Z,11.00
2018-10-18T02:41:44.320Z,11.00
2018-10-18T02:44:12.874Z,11.00
2018-10-18T02:46:41.414Z,10.90
2018-10-18T02:49:10.998Z,10.90
2018-10-18T02:51:39.767Z,10.90
2018-10-18T02:54:08.440Z,10.90
2018-10-18T02:56:36.982Z,10.90
2018-10-18T02:59:06.026Z,10.80
2018-10-18T03:01:34.656Z,10.80
2018-10-18T03:04:03.428Z,10.80
2018-10-18T03:06:31.970Z,10.80
2018-10-18T03:09:00.695Z,10.80
2018-10-18T03:11:29.215Z,10.80
2018-10-18T03:13:57.791Z,10.80
2018-10-18T03:16:26.338Z,10.70
2018-10-18T03:18:54.933Z,10.70
2018-10-18T03:21:23.473Z,10.70
2018-10-18T03:23:52.092Z,10.70
2018-10-18T03:26:20.672Z,10.60
2018-10-18T03:28:49.277Z,10.60
2018-10-18T03:31:17.818Z,10.60
2018-10-18T03:33:46.389Z,10.50
2018-10-18T03:36:16.270Z,10.50
2018-10-18T03:38:44.915Z,10.50
2018-10-18T03:41:13.485Z,10.50
2018-10-18T03:43:42.089Z,10.50
2018-10-18T03:46:11.381Z,10.40
2018-10-18T03:48:39.947Z,10.50
2018-10-18T03:51:08.452Z,10.50
2018-10-18T03:53:37.119Z,10.50
2018-10-18T03:56:06.745Z,10.50
2018-10-18T03:58:35.370Z,10.50
2018-10-18T04:01:03.913Z,10.50
2018-10-18T04:03:32.640Z,10.50
2018-10-18T04:06:01.327Z,10.50
2018-10-18T04:08:29.837Z,10.50
2018-10-18T04:10:58.511Z,10.50
2018-10-18T04:13:27.092Z,10.50
2018-10-18T04:15:55.616Z,10.50
2018-10-18T04:18:24.210Z,10.50
2018-10-18T04:20:52.723Z,10.50
2018-10-18T04:23:30.829Z,10.40
2018-10-18T04:25:59.668Z,10.40
2018-10-18T04:28:28.391Z,10.30
2018-10-18T04:30:57.201Z,10.30
2018-10-18T04:33:26.163Z,10.20
2018-10-18T04:35:54.774Z,10.20
2018-10-18T04:38:23.331Z,10.20
2018-10-18T04:40:51.869Z,10.20
2018-10-18T04:43:20.640Z,10.30
2018-10-18T04:45:49.209Z,10.20
2018-10-18T04:48:17.990Z,10.30
2018-10-18T04:50:47.155Z,10.30
2018-10-18T04:53:15.743Z,10.30
2018-10-18T04:55:44.261Z,10.30
2018-10-18T04:58:12.883Z,10.20
2018-10-18T05:00:41.452Z,10.20
2018-10-18T05:03:09.989Z,10.20
2018-10-18T05:05:55.048Z,10.10
2018-10-18T05:08:24.989Z,10.10
2018-10-18T05:10:53.837Z,10.10
2018-10-18T05:13:22.435Z,10.00
2018-10-18T05:15:51.204Z,10.00
2018-10-18T05:18:20.314Z,10.00
2018-10-18T05:20:48.962Z,10.10
2018-10-18T05:23:17.492Z,10.10
2018-10-18T05:25:46.860Z,10.00
2018-10-18T05:28:15.390Z,10.00
2018-10-18T05:30:43.977Z,10.10
2018-10-18T05:33:12.639Z,10.10
2018-10-18T05:35:41.282Z,10.10
2018-10-18T05:38:12.796Z,10.00
2018-10-18T05:40:41.383Z,10.00
2018-10-18T05:43:10.438Z,10.00
2018-10-18T05:45:39.027Z,10.00
2018-10-18T05:48:07.586Z,10.00
2018-10-18T05:50:36.333Z,10.00
2018-10-18T05:53:05.246Z,10.00
2018-10-18T05:55:33.838Z,9.90
2018-10-18T05:58:02.580Z,9.90
2018-10-18T06:00:31.407Z,9.90
2018-10-18T06:02:59.996Z,9.90
2018-10-18T06:05:29.516Z,9.90
2018-10-18T06:07:58.155Z,9.90
2018-10-18T06:10:37.997Z,9.90
2018-10-18T06:13:06.834Z,10.00
2018-10-18T06:15:36.363Z,10.00
2018-10-18T06:18:05.489Z,10.00
2018-10-18T06:20:34.149Z,10.10
2018-10-18T06:23:02.964Z,10.10
2018-10-18T06:25:31.657Z,10.10
2018-10-18T06:28:00.601Z,10.10
2018-10-18T06:30:30.423Z,10.10
2018-10-18T06:32:59.086Z,10.20
2018-10-18T06:35:27.784Z,10.20
2018-10-18T06:37:56.546Z,10.30
2018-10-18T06:40:25.674Z,10.40
2018-10-18T06:42:55.327Z,10.40
2018-10-18T06:45:24.484Z,10.50
2018-10-18T06:47:53.343Z,10.50
2018-10-18T06:50:22.187Z,10.60
2018-10-18T06:52:50.780Z,10.60
2018-10-18T06:55:19.514Z,10.70
2018-10-18T06:57:48.063Z,10.80
2018-10-18T07:00:23.999Z,10.80
2018-10-18T07:02:53.493Z,10.80
2018-10-18T07:05:22.751Z,10.90
2018-10-18T07:07:51.635Z,10.90
2018-10-18T07:10:20.305Z,11.00
2018-10-18T07:12:49.001Z,11.00
2018-10-18T07:15:17.650Z,11.00
2018-10-18T07:17:46.543Z,11.00
2018-10-18T07:20:16.048Z,11.00
2018-10-18T07:22:44.651Z,11.10
2018-10-18T07:25:14.717Z,11.10
2018-10-18T07:27:43.707Z,11.10
2018-10-18T07:30:14.532Z,11.10
2018-10-18T07:32:44.191Z,11.20
2018-10-18T07:35:14.231Z,11.20
2018-10-18T07:37:42.769Z,11.10
2018-10-18T07:40:14.995Z,11.10
2018-10-18T07:42:44.016Z,11.20
2018-10-18T07:45:13.695Z,11.20
2018-10-18T07:47:43.037Z,11.30
2018-10-18T07:50:12.201Z,11.30
2018-10-18T07:52:40.871Z,11.40
2018-10-18T07:55:10.576Z,11.40
2018-10-18T07:57:39.826Z,11.60
2018-10-18T08:00:11.363Z,11.70
2018-10-18T08:02:40.173Z,11.90
2018-10-18T08:05:09.469Z,12.10
2018-10-18T08:07:38.543Z,12.20
2018-10-18T08:10:15.522Z,12.30
2018-10-18T08:12:44.230Z,12.50
2018-10-18T08:15:14.442Z,12.60
2018-10-18T08:17:44.860Z,12.70
2018-10-18T08:20:14.411Z,12.80
2018-10-18T08:22:43.669Z,12.90
2018-10-18T08:25:12.799Z,13.00
2018-10-18T08:27:41.915Z,13.20
2018-10-18T08:30:12.416Z,13.30
2018-10-18T08:32:41.540Z,13.40
2018-10-18T08:35:11.636Z,13.50
2018-10-18T08:37:40.534Z,13.60
2018-10-18T08:40:09.380Z,13.70
2018-10-18T08:42:38.465Z,13.80
2018-10-18T08:45:08.411Z,13.90
2018-10-18T08:47:37.367Z,14.10
2018-10-18T08:50:08.238Z,14.20
2018-10-18T08:52:37.421Z,14.30
2018-10-18T08:55:07.822Z,14.50
2018-10-18T08:57:36.640Z,14.60
2018-10-18T09:00:05.969Z,14.70
2018-10-18T09:02:34.672Z,14.80
2018-10-18T09:05:03.548Z,15.00
2018-10-18T09:07:33.126Z,15.10
2018-10-18T09:10:02.694Z,15.10
2018-10-18T09:12:31.732Z,15.20
2018-10-18T09:15:00.847Z,15.30
2018-10-18T09:17:29.503Z,15.30
2018-10-18T09:19:58.909Z,15.30
2018-10-18T09:22:27.735Z,15.20
2018-10-18T09:24:56.915Z,15.00
2018-10-18T09:27:25.557Z,15.20
2018-10-18T09:29:54.288Z,15.40
2018-10-18T09:32:23.134Z,15.50
2018-10-18T09:34:52.689Z,15.60
2018-10-18T09:37:21.665Z,15.70
2018-10-18T09:39:51.687Z,15.80
2018-10-18T09:42:20.459Z,15.90
2018-10-18T09:44:49.173Z,16.00
2018-10-18T09:47:17.770Z,16.00
2018-10-18T09:49:46.449Z,16.10
2018-10-18T09:52:15.041Z,16.20
2018-10-18T09:54:44.346Z,16.20
2018-10-18T09:57:13.258Z,16.30
2018-10-18T09:59:42.426Z,16.40
2018-10-18T10:02:16.359Z,16.40
2018-10-18T10:04:44.990Z,16.50
2018-10-18T10:07:14.286Z,16.50
2018-10-18T10:09:42.843Z,16.60
2018-10-18T10:12:11.602Z,16.60
2018-10-18T10:14:40.430Z,16.60
2018-10-18T10:17:09.216Z,16.70
2018-10-18T10:19:38.205Z,16.70
2018-10-18T10:22:06.860Z,16.80
2018-10-18T10:24:35.595Z,16.80
2018-10-18T10:27:04.248Z,16.80
2018-10-18T10:29:33.192Z,16.80
2018-10-18T10:32:02.314Z,16.80
2018-10-18T10:34:31.091Z,16.80
2018-10-18T10:36:59.788Z,16.80
2018-10-18T10:39:28.410Z,16.80
2018-10-18T10:41:57.064Z,16.80
2018-10-18T10:44:26.279Z,16.80
2018-10-18T10:46:54.962Z,16.80
2018-10-18T10:49:23.642Z,16.70
2018-10-18T10:51:52.336Z,16.70
2018-10-18T10:54:21.562Z,16.70
2018-10-18T10:56:50.236Z,16.70
2018-10-18T10:59:20.192Z,16.70
2018-10-18T11:01:48.804Z,16.60
2018-10-18T11:04:17.434Z,16.60
2018-10-18T11:06:46.340Z,16.50
2018-10-18T11:09:15.114Z,16.50
2018-10-18T11:11:43.902Z,16.40
2018-10-18T11:14:12.594Z,16.40
2018-10-18T11:16:41.223Z,16.40
2018-10-18T11:19:10.250Z,16.40
2018-10-18T11:21:39.454Z,16.30
2018-10-18T11:24:08.356Z,16.30
2018-10-18T11:26:37.014Z,16.30
2018-10-18T11:29:06.246Z,16.30
2018-10-18T11:31:35.669Z,16.30
2018-10-18T11:34:05.214Z,16.30
2018-10-18T11:36:33.816Z,16.30
2018-10-18T11:39:02.697Z,16.30
2018-10-18T11:41:31.813Z,16.30
2018-10-18T11:44:00.606Z,16.30
2018-10-18T11:46:29.346Z,16.30
2018-10-18T11:48:57.998Z,16.30
2018-10-18T11:51:26.632Z,16.30
2018-10-18T11:53:55.322Z,16.40
2018-10-18T11:56:24.615Z,16.40
2018-10-18T11:58:53.346Z,16.40
2018-10-18T12:01:22.314Z,16.40
2018-10-18T12:03:50.958Z,16.40
2018-10-18T12:06:19.638Z,16.40
2018-10-18T12:08:48.382Z,16.40
2018-10-18T12:11:17.151Z,16.40
2018-10-18T12:13:46.198Z,16.50
2018-10-18T12:16:15.046Z,16.50
2018-10-18T12:18:44.810Z,16.50
2018-10-18T12:21:14.284Z,16.50
2018-10-18T12:23:42.948Z,16.50
2018-10-18T12:26:11.641Z,16.50
2018-10-18T12:28:40.280Z,16.60
2018-10-18T12:31:09.556Z,16.60
2018-10-18T12:33:38.366Z,16.70
2018-10-18T12:36:07.248Z,16.70
2018-10-18T12:38:36.685Z,16.70
2018-10-18T12:41:06.256Z,16.70
2018-10-18T12:43:35.040Z,16.80
2018-10-18T12:46:03.811Z,16.80
2018-10-18T12:48:32.596Z,16.80
2018-10-18T12:51:01.749Z,16.80
2018-10-18T12:53:30.378Z,16.80
2018-10-18T12:55:59.797Z,16.80
2018-10-18T12:58:28.993Z,16.80
2018-10-18T13:00:58.562Z,16.80
2018-10-18T13:03:29.220Z,16.90
2018-10-18T13:05:58.024Z,16.90
2018-10-18T13:08:27.547Z,16.90
2018-10-18T13:10:56.552Z,16.90
2018-10-18T13:13:25.214Z,16.90
2018-10-18T13:15:54.701Z,17.00
2018-10-18T13:18:23.712Z,17.00
2018-10-18T13:20:52.378Z,16.90
2018-10-18T13:23:22.838Z,16.90
2018-10-18T13:25:51.545Z,16.90
2018-10-18T13:28:20.349Z,16.90
2018-10-18T13:30:49.102Z,16.90
2018-10-18T13:33:17.917Z,16.80
2018-10-18T13:35:46.721Z,16.80
2018-10-18T13:38:16.069Z,16.80
2018-10-18T13:40:45.194Z,16.80
2018-10-18T13:43:15.446Z,16.70
2018-10-18T13:45:45.336Z,16.70
2018-10-18T13:48:14.556Z,16.70
2018-10-18T13:50:43.483Z,16.70
2018-10-18T13:53:13.024Z,16.70
2018-10-18T13:55:41.760Z,16.70
2018-10-18T13:58:11.133Z,16.70
2018-10-18T14:00:41.191Z,16.60
2018-10-18T14:03:09.945Z,16.60
2018-10-18T14:05:38.680Z,16.60
2018-10-18T14:08:07.641Z,16.60
2018-10-18T14:10:36.283Z,16.60
2018-10-18T14:13:05.337Z,16.50
2018-10-18T14:15:34.972Z,16.50
2018-10-18T14:18:03.862Z,16.50
2018-10-18T14:20:33.246Z,16.50
2018-10-18T14:23:02.313Z,16.50
2018-10-18T14:25:31.698Z,16.40
2018-10-18T14:28:01.924Z,16.40
2018-10-18T14:30:30.969Z,16.30
2018-10-18T14:32:59.609Z,16.20
2018-10-18T14:35:28.519Z,16.20
2018-10-18T14:37:58.061Z,16.20
2018-10-18T14:40:27.449Z,16.10
2018-10-18T14:42:57.389Z,16.10
2018-10-18T14:45:26.146Z,16.10
2018-10-18T14:47:54.932Z,16.10
2018-10-18T14:50:23.808Z,16.00
2018-10-18T14:52:52.950Z,15.90
2018-10-18T14:55:21.651Z,15.90
2018-10-18T14:57:50.495Z,15.90
2018-10-18T15:00:19.387Z,15.80
2018-10-18T15:02:48.127Z,15.80
2018-10-18T15:05:18.050Z,15.80
2018-10-18T15:07:46.887Z,15.70
2018-10-18T15:10:16.290Z,15.70
2018-10-18T15:12:45.314Z,15.60
2018-10-18T15:15:15.198Z,15.60
2018-10-18T15:17:44.269Z,15.50
2018-10-18T15:20:13.653Z,15.50
2018-10-18T15:22:43.089Z,15.40
2018-10-18T15:25:12.873Z,15.30
2018-10-18T15:27:42.822Z,15.30
2018-10-18T15:30:12.055Z,15.20
2018-10-18T15:32:41.067Z,15.10
2018-10-18T15:35:11.062Z,15.00
2018-10-18T15:37:40.392Z,15.00
2018-10-18T15:40:09.820Z,14.90
2018-10-18T15:42:38.726Z,14.80
2018-10-18T15:45:08.012Z,14.80
2018-10-18T15:47:36.958Z,14.70
2018-10-18T15:50:07.286Z,14.70
2018-10-18T15:52:36.183Z,14.60
2018-10-18T15:55:05.104Z,14.50
2018-10-18T15:57:34.121Z,14.40
2018-10-18T16:00:02.903Z,14.40
2018-10-18T16:02:31.866Z,14.30
2018-10-18T16:05:00.506Z,14.30
2018-10-18T16:07:29.903Z,14.30
2018-10-18T16:09:58.621Z,14.20
2018-10-18T16:12:28.169Z,14.30
2018-10-18T16:14:57.043Z,14.30
2018-10-18T16:17:25.743Z,14.20
2018-10-18T16:19:54.424Z,14.20
2018-10-18T16:22:23.317Z,14.20
2018-10-18T16:24:52.574Z,14.30
2018-10-18T16:27:22.565Z,14.30
2018-10-18T16:29:51.519Z,14.30
2018-10-18T16:32:20.276Z,14.30
2018-10-18T16:34:49.703Z,14.30
2018-10-18T16:37:18.639Z,14.40
2018-10-18T16:39:47.345Z,14.30
2018-10-18T16:42:16.386Z,14.40
2018-10-18T16:44:45.119Z,14.40
2018-10-18T16:47:13.866Z,14.40
2018-10-18T16:49:42.551Z,14.40
2018-10-18T16:52:11.447Z,14.40
2018-10-18T16:54:40.315Z,14.40
2018-10-18T16:57:09.176Z,14.40
2018-10-18T16:59:37.848Z,14.40
2018-10-18T17:02:06.765Z,14.40
2018-10-18T17:04:35.502Z,14.40
2018-10-18T17:07:04.172Z,14.40
2018-10-18T17:09:32.847Z,14.40
2018-10-18T17:12:02.457Z,14.40
2018-10-18T17:14:32.914Z,14.40
2018-10-18T17:17:02.894Z,14.40
2018-10-18T17:19:33.711Z,14.40
2018-10-18T17:22:02.681Z,14.40
2018-10-18T17:24:31.360Z,14.40
2018-10-18T17:27:00.673Z,14.40
2018-10-18T17:29:29.655Z,14.40
2018-10-18T17:31:59.027Z,14.40
2018-10-18T17:34:27.824Z,14.40
2018-10-18T17:36:59.417Z,14.40
2018-10-18T17:39:28.325Z,14.40
2018-10-18T17:41:57.641Z,14.50
2018-10-18T17:44:26.519Z,14.40
2018-10-18T17:46:56.209Z,14.40
2018-10-18T17:49:24.962Z,14.40
2018-10-18T17:51:53.768Z,14.50
2018-10-18T17:54:23.220Z,14.50
2018-10-18T17:56:51.912Z,14.50
2018-10-18T17:59:20.517Z,14.40
2018-10-18T18:01:49.181Z,14.50
2018-10-18T18:04:18.627Z,14.50
2018-10-18T18:06:47.441Z,14.50
2018-10-18T18:09:16.365Z,14.50
2018-10-18T18:11:45.974Z,14.50
2018-10-18T18:14:15.572Z,14.50
2018-10-18T18:16:44.302Z,14.50
2018-10-18T18:19:13.158Z,14.50
2018-10-18T18:21:41.888Z,14.50
2018-10-18T18:24:11.613Z,14.50
2018-10-18T18:26:45.346Z,14.50
2018-10-18T18:29:08.956Z,14.50
2018-10-18T18:31:38.410Z,14.50
2018-10-18T18:34:07.038Z,14.50
2018-10-18T18:36:35.954Z,14.50
2018-10-18T18:39:06.776Z,14.50
2018-10-18T18:41:35.426Z,14.50
2018-10-18T18:44:04.158Z,14.50
2018-10-18T18:46:33.462Z,14.50
2018-10-18T18:49:02.265Z,14.60
2018-10-18T18:51:31.336Z,14.50
2018-10-18T18:54:01.977Z,14.50
2018-10-18T18:56:30.751Z,14.50
2018-10-18T18:58:59.596Z,14.50
2018-10-18T19:01:29.284Z,14.50
2018-10-18T19:03:57.980Z,14.50
2018-10-18T19:06:26.590Z,14.50
2018-10-18T19:08:55.190Z,14.50
2018-10-18T19:11:23.827Z,14.50
2018-10-18T19:13:54.400Z,14.50
2018-10-18T19:16:23.070Z,14.50
2018-10-18T19:18:51.910Z,14.50
2018-10-18T19:21:20.548Z,14.60
2018-10-18T19:23:49.262Z,14.50
2018-10-18T19:26:17.964Z,14.60
2018-10-18T19:28:46.632Z,14.60
2018-10-18T19:31:15.301Z,14.60
2018-10-18T19:33:43.966Z,14.60
2018-10-18T19:36:12.826Z,14.60
2018-10-18T19:38:41.487Z,14.60
2018-10-18T19:41:10.169Z,14.60
2018-10-18T19:43:38.795Z,14.60
2018-10-18T19:46:07.812Z,14.60
2018-10-18T19:48:37.299Z,14.60
2018-10-18T19:51:06.417Z,14.60
2018-10-18T19:53:35.073Z,14.60
2018-10-18T19:56:03.816Z,14.60
2018-10-18T19:58:32.417Z,14.60
2018-10-18T20:01:01.856Z,14.60
2018-10-18T20:03:30.439Z,14.50
2018-10-18T20:05:59.271Z,14.50
2018-10-18T20:08:27.874Z,14.50
2018-10-18T20:10:56.576Z,14.50
2018-10-18T20:13:25.760Z,14.50
2018-10-18T20:15:54.718Z,14.50
2018-10-18T20:18:24.045Z,14.50
2018-10-18T20:20:52.683Z,14.50
2018-10-18T20:23:22.898Z,14.50
2018-10-18T20:25:51.737Z,14.50
2018-10-18T20:28:20.615Z,14.50
2018-10-18T20:30:49.282Z,14.50
2018-10-18T20:33:19.253Z,14.50
2018-10-18T20:35:48.193Z,14.50
2018-10-18T20:38:17.098Z,14.50
2018-10-18T20:40:46.315Z,14.50
2018-10-18T20:43:15.084Z,14.50
2018-10-18T20:45:44.282Z,14.50
2018-10-18T20:48:13.059Z,14.50
2018-10-18T20:50:41.747Z,14.50
2018-10-18T20:53:10.701Z,14.50
2018-10-18T20:55:39.652Z,14.50
2018-10-18T20:58:08.403Z,14.50
2018-10-18T21:00:37.135Z,14.50
2018-10-18T21:03:06.350Z,14.50
2018-10-18T21:05:34.969Z,14.50
2018-10-18T21:08:03.533Z,14.50
2018-10-18T21:10:33.643Z,14.50
2018-10-18T21:13:02.717Z,14.50
2018-10-18T21:15:31.499Z,14.50
2018-10-18T21:18:00.768Z,14.50
2018-10-18T21:20:29.418Z,14.50
2018-10-18T21:22:58.555Z,14.50
2018-10-18T21:25:27.899Z,14.50
2018-10-18T21:27:56.771Z,14.50
2018-10-18T21:30:25.370Z,14.50
2018-10-18T21:32:53.945Z,14.50
2018-10-18T21:35:24.282Z,14.50
2018-10-18T21:37:53.345Z,14.50
2018-10-18T21:40:21.946Z,14.50
2018-10-18T21:42:50.534Z,14.50
2018-10-18T21:45:19.587Z,14.50
2018-10-18T21:47:48.278Z,14.50
2018-10-18T21:50:16.965Z,14.50
2018-10-18T21:52:45.574Z,14.50
2018-10-18T21:55:16.056Z,14.50
2018-10-18T21:57:44.712Z,14.50
2018-10-18T22:00:15.690Z,14.50
2018-10-18T22:02:45.355Z,14.50
2018-10-18T22:05:15.168Z,14.60
2018-10-18T22:07:44.380Z,14.50
2018-10-18T22:10:13.716Z,14.50
2018-10-18T22:12:42.430Z,14.60
2018-10-18T22:15:11.548Z,14.50
2018-10-18T22:17:40.196Z,14.50
2018-10-18T22:20:10.281Z,14.50
2018-10-18T22:22:38.866Z,14.50
2018-10-18T22:25:08.703Z,14.60
2018-10-18T22:27:37.374Z,14.60
2018-10-18T22:30:07.283Z,14.60
2018-10-18T22:32:36.094Z,14.60
2018-10-18T22:35:05.149Z,14.60
2018-10-18T22:37:34.023Z,14.60
2018-10-18T22:40:03.003Z,14.60
2018-10-18T22:42:31.629Z,14.50
2018-10-18T22:45:00.394Z,14.60
2018-10-18T22:47:29.076Z,14.60
2018-10-18T22:49:57.684Z,14.60
2018-10-18T22:52:26.344Z,14.60
2018-10-18T22:54:55.680Z,14.60
2018-10-18T22:57:24.286Z,14.60
2018-10-18T22:59:52.942Z,14.60
2018-10-18T23:02:21.500Z,14.60
2018-10-18T23:04:50.186Z,14.60
2018-10-18T23:07:19.404Z,14.60
2018-10-18T23:09:48.014Z,14.60
2018-10-18T23:12:16.690Z,14.60
2018-10-18T23:14:45.507Z,14.60
2018-10-18T23:17:14.352Z,14.60
2018-10-18T23:19:42.982Z,14.60
2018-10-18T23:22:11.607Z,14.60
2018-10-18T23:24:40.269Z,14.60
2018-10-18T23:27:09.355Z,14.60
2018-10-18T23:29:39.244Z,14.50
2018-10-18T23:32:08.528Z,14.60
2018-10-18T23:34:37.489Z,14.60
2018-10-18T23:37:06.236Z,14.60
2018-10-18T23:39:34.924Z,14.60
2018-10-18T23:42:04.535Z,14.60
2018-10-18T23:44:33.261Z,14.60
2018-10-18T23:47:01.939Z,14.60
2018-10-18T23:49:31.003Z,14.60
2018-10-18T23:51:59.622Z,14.60
2018-10-18T23:54:28.817Z,14.60
2018-10-18T23:56:57.581Z,14.50
2018-10-18T23:59:26.901Z,14.50
